sensor_id;sensor_type;location;lat;lon;timestamp;P1;durP1;ratioP1;P2;durP2;ratioP2
64932;SDS011;51446;53.850;10.662;2023-08-17T00:01:01;7.03;;;1.70;;
64932;SDS011;51446;53.850;10.662;2023-08-17T00:03:26;7.13;;;1.57;;
64932;SDS011;51446;53.850;10.662;2023-08-17T00:05:51;5.40;;;1.90;;
64932;SDS011;51446;53.850;10.662;2023-08-17T00:08:16;13.63;;;2.07;;
64932;SDS011;51446;53.850;10.662;2023-08-17T00:10:42;6.00;;;1.83;;
64932;SDS011;51446;53.850;10.662;2023-08-17T00:13:08;5.13;;;1.90;;
64932;SDS011;51446;53.850;10.662;2023-08-17T00:15:33;2.63;;;1.70;;
64932;SDS011;51446;53.850;10.662;2023-08-17T00:17:58;5.80;;;1.93;;
64932;SDS011;51446;53.850;10.662;2023-08-17T00:20:23;5.30;;;1.60;;
64932;SDS011;51446;53.850;10.662;2023-08-17T00:22:49;5.43;;;1.90;;
64932;SDS011;51446;53.850;10.662;2023-08-17T00:25:14;5.17;;;1.90;;
64932;SDS011;51446;53.850;10.662;2023-08-17T00:27:39;4.47;;;1.70;;
64932;SDS011;51446;53.850;10.662;2023-08-17T00:30:05;4.63;;;1.63;;
64932;SDS011;51446;53.850;10.662;2023-08-17T00:32:30;8.88;;;2.15;;
64932;SDS011;51446;53.850;10.662;2023-08-17T00:34:56;5.57;;;1.70;;
64932;SDS011;51446;53.850;10.662;2023-08-17T00:37:21;3.63;;;2.00;;
64932;SDS011;51446;53.850;10.662;2023-08-17T00:39:46;3.37;;;1.47;;
64932;SDS011;51446;53.850;10.662;2023-08-17T00:42:11;2.63;;;1.63;;
64932;SDS011;51446;53.850;10.662;2023-08-17T00:44:37;6.80;;;2.03;;
64932;SDS011;51446;53.850;10.662;2023-08-17T00:47:02;6.37;;;1.80;;
64932;SDS011;51446;53.850;10.662;2023-08-17T00:49:29;3.35;;;1.45;;
64932;SDS011;51446;53.850;10.662;2023-08-17T00:51:55;4.17;;;1.90;;
64932;SDS011;51446;53.850;10.662;2023-08-17T00:54:23;3.65;;;1.65;;
64932;SDS011;51446;53.850;10.662;2023-08-17T00:56:49;6.65;;;1.65;;
64932;SDS011;51446;53.850;10.662;2023-08-17T00:59:15;9.18;;;1.70;;
64932;SDS011;51446;53.850;10.662;2023-08-17T01:01:41;3.90;;;1.70;;
64932;SDS011;51446;53.850;10.662;2023-08-17T01:04:07;3.90;;;1.60;;
64932;SDS011;51446;53.850;10.662;2023-08-17T01:06:32;3.50;;;1.70;;
64932;SDS011;51446;53.850;10.662;2023-08-17T01:08:58;5.80;;;1.60;;
64932;SDS011;51446;53.850;10.662;2023-08-17T01:16:27;5.20;;;1.58;;
64932;SDS011;51446;53.850;10.662;2023-08-17T01:18:57;8.50;;;1.83;;
64932;SDS011;51446;53.850;10.662;2023-08-17T01:21:25;5.60;;;1.85;;
64932;SDS011;51446;53.850;10.662;2023-08-17T01:24:00;5.20;;;1.60;;
64932;SDS011;51446;53.850;10.662;2023-08-17T01:26:28;5.38;;;1.55;;
64932;SDS011;51446;53.850;10.662;2023-08-17T01:28:54;4.37;;;1.83;;
64932;SDS011;51446;53.850;10.662;2023-08-17T01:31:21;4.43;;;1.70;;
64932;SDS011;51446;53.850;10.662;2023-08-17T01:33:56;3.17;;;1.67;;
64932;SDS011;51446;53.850;10.662;2023-08-17T01:36:37;3.05;;;1.80;;
64932;SDS011;51446;53.850;10.662;2023-08-17T01:39:07;5.85;;;1.80;;
64932;SDS011;51446;53.850;10.662;2023-08-17T01:41:34;5.80;;;1.90;;
64932;SDS011;51446;53.850;10.662;2023-08-17T01:44:01;5.90;;;1.52;;
64932;SDS011;51446;53.850;10.662;2023-08-17T01:46:31;6.63;;;1.80;;
64932;SDS011;51446;53.850;10.662;2023-08-17T01:48:57;3.83;;;1.65;;
64932;SDS011;51446;53.850;10.662;2023-08-17T01:51:23;5.27;;;1.80;;
64932;SDS011;51446;53.850;10.662;2023-08-17T01:53:50;4.47;;;1.67;;
64932;SDS011;51446;53.850;10.662;2023-08-17T01:56:16;3.33;;;1.70;;
64932;SDS011;51446;53.850;10.662;2023-08-17T01:58:41;5.00;;;1.50;;
64932;SDS011;51446;53.850;10.662;2023-08-17T02:01:07;4.97;;;1.67;;
64932;SDS011;51446;53.850;10.662;2023-08-17T02:03:32;5.00;;;1.53;;
64932;SDS011;51446;53.850;10.662;2023-08-17T02:05:58;2.57;;;1.50;;
64932;SDS011;51446;53.850;10.662;2023-08-17T02:08:24;6.85;;;1.80;;
64932;SDS011;51446;53.850;10.662;2023-08-17T02:10:49;4.13;;;1.23;;
64932;SDS011;51446;53.850;10.662;2023-08-17T02:13:15;1.70;;;1.47;;
64932;SDS011;51446;53.850;10.662;2023-08-17T02:15:41;2.88;;;1.50;;
64932;SDS011;51446;53.850;10.662;2023-08-17T02:18:06;7.47;;;1.77;;
64932;SDS011;51446;53.850;10.662;2023-08-17T02:20:32;4.97;;;1.40;;
64932;SDS011;51446;53.850;10.662;2023-08-17T02:22:57;5.33;;;1.20;;
64932;SDS011;51446;53.850;10.662;2023-08-17T02:25:22;4.80;;;1.60;;
64932;SDS011;51446;53.850;10.662;2023-08-17T02:27:48;6.63;;;1.35;;
64932;SDS011;51446;53.850;10.662;2023-08-17T02:30:13;5.27;;;1.80;;
64932;SDS011;51446;53.850;10.662;2023-08-17T02:32:38;5.57;;;1.60;;
64932;SDS011;51446;53.850;10.662;2023-08-17T02:35:04;5.33;;;1.77;;
64932;SDS011;51446;53.850;10.662;2023-08-17T02:37:29;4.00;;;1.60;;
64932;SDS011;51446;53.850;10.662;2023-08-17T02:39:55;3.17;;;1.70;;
64932;SDS011;51446;53.850;10.662;2023-08-17T02:42:20;5.20;;;1.40;;
64932;SDS011;51446;53.850;10.662;2023-08-17T02:44:46;4.00;;;1.50;;
64932;SDS011;51446;53.850;10.662;2023-08-17T02:47:11;4.37;;;1.53;;
64932;SDS011;51446;53.850;10.662;2023-08-17T02:49:36;7.03;;;1.70;;
64932;SDS011;51446;53.850;10.662;2023-08-17T02:52:02;3.13;;;1.53;;
64932;SDS011;51446;53.850;10.662;2023-08-17T02:54:27;2.92;;;1.40;;
64932;SDS011;51446;53.850;10.662;2023-08-17T02:56:52;6.70;;;1.60;;
64932;SDS011;51446;53.850;10.662;2023-08-17T02:59:18;3.60;;;1.30;;
64932;SDS011;51446;53.850;10.662;2023-08-17T03:01:44;4.70;;;1.97;;
64932;SDS011;51446;53.850;10.662;2023-08-17T03:04:10;6.00;;;1.80;;
64932;SDS011;51446;53.850;10.662;2023-08-17T03:06:37;5.63;;;1.80;;
64932;SDS011;51446;53.850;10.662;2023-08-17T03:09:02;2.70;;;1.70;;
64932;SDS011;51446;53.850;10.662;2023-08-17T03:11:28;4.50;;;1.53;;
64932;SDS011;51446;53.850;10.662;2023-08-17T03:13:53;6.10;;;1.57;;
64932;SDS011;51446;53.850;10.662;2023-08-17T03:16:24;7.70;;;1.63;;
64932;SDS011;51446;53.850;10.662;2023-08-17T03:18:50;4.00;;;1.50;;
64932;SDS011;51446;53.850;10.662;2023-08-17T03:21:15;6.03;;;1.80;;
64932;SDS011;51446;53.850;10.662;2023-08-17T03:23:42;2.80;;;1.55;;
64932;SDS011;51446;53.850;10.662;2023-08-17T03:26:07;5.53;;;2.00;;
64932;SDS011;51446;53.850;10.662;2023-08-17T03:28:33;9.03;;;2.20;;
64932;SDS011;51446;53.850;10.662;2023-08-17T03:30:58;5.40;;;2.10;;
64932;SDS011;51446;53.850;10.662;2023-08-17T03:33:23;12.00;;;2.17;;
64932;SDS011;51446;53.850;10.662;2023-08-17T03:35:48;4.17;;;1.80;;
64932;SDS011;51446;53.850;10.662;2023-08-17T03:38:14;4.67;;;1.43;;
64932;SDS011;51446;53.850;10.662;2023-08-17T03:40:39;6.50;;;1.83;;
64932;SDS011;51446;53.850;10.662;2023-08-17T03:43:04;6.23;;;1.90;;
64932;SDS011;51446;53.850;10.662;2023-08-17T03:45:30;5.10;;;2.07;;
64932;SDS011;51446;53.850;10.662;2023-08-17T03:47:55;10.85;;;2.40;;
64932;SDS011;51446;53.850;10.662;2023-08-17T03:50:21;7.63;;;2.20;;
64932;SDS011;51446;53.850;10.662;2023-08-17T03:52:47;7.07;;;2.50;;
64932;SDS011;51446;53.850;10.662;2023-08-17T03:55:12;6.47;;;2.20;;
64932;SDS011;51446;53.850;10.662;2023-08-17T03:57:37;5.27;;;2.20;;
64932;SDS011;51446;53.850;10.662;2023-08-17T04:00:02;6.63;;;1.90;;
64932;SDS011;51446;53.850;10.662;2023-08-17T04:02:30;4.50;;;1.77;;
64932;SDS011;51446;53.850;10.662;2023-08-17T04:04:55;6.10;;;1.93;;
64932;SDS011;51446;53.850;10.662;2023-08-17T04:07:21;5.30;;;1.90;;
64932;SDS011;51446;53.850;10.662;2023-08-17T04:09:47;5.82;;;1.80;;
64932;SDS011;51446;53.850;10.662;2023-08-17T04:12:12;6.20;;;1.70;;
64932;SDS011;51446;53.850;10.662;2023-08-17T04:14:38;5.10;;;1.90;;
64932;SDS011;51446;53.850;10.662;2023-08-17T04:17:03;7.23;;;2.00;;
64932;SDS011;51446;53.850;10.662;2023-08-17T04:19:28;5.53;;;2.00;;
64932;SDS011;51446;53.850;10.662;2023-08-17T04:21:53;3.97;;;1.80;;
64932;SDS011;51446;53.850;10.662;2023-08-17T04:24:19;7.53;;;2.10;;
64932;SDS011;51446;53.850;10.662;2023-08-17T04:26:44;5.70;;;2.00;;
64932;SDS011;51446;53.850;10.662;2023-08-17T04:29:09;11.27;;;2.00;;
64932;SDS011;51446;53.850;10.662;2023-08-17T04:31:34;8.30;;;2.00;;
64932;SDS011;51446;53.850;10.662;2023-08-17T04:34:00;6.93;;;2.07;;
64932;SDS011;51446;53.850;10.662;2023-08-17T04:36:25;8.83;;;2.10;;
64932;SDS011;51446;53.850;10.662;2023-08-17T04:38:50;9.23;;;2.03;;
64932;SDS011;51446;53.850;10.662;2023-08-17T04:41:16;4.90;;;1.70;;
64932;SDS011;51446;53.850;10.662;2023-08-17T04:43:42;9.15;;;2.35;;
64932;SDS011;51446;53.850;10.662;2023-08-17T04:46:08;9.20;;;2.17;;
64932;SDS011;51446;53.850;10.662;2023-08-17T04:48:33;8.07;;;2.28;;
64932;SDS011;51446;53.850;10.662;2023-08-17T04:50:58;6.40;;;2.10;;
64932;SDS011;51446;53.850;10.662;2023-08-17T04:53:23;6.47;;;1.90;;
64932;SDS011;51446;53.850;10.662;2023-08-17T04:55:49;8.10;;;2.50;;
64932;SDS011;51446;53.850;10.662;2023-08-17T04:58:14;9.83;;;2.20;;
64932;SDS011;51446;53.850;10.662;2023-08-17T05:00:39;5.23;;;2.20;;
64932;SDS011;51446;53.850;10.662;2023-08-17T05:03:05;6.53;;;2.30;;
64932;SDS011;51446;53.850;10.662;2023-08-17T05:05:30;9.43;;;3.83;;
64932;SDS011;51446;53.850;10.662;2023-08-17T05:07:55;7.40;;;2.30;;
64932;SDS011;51446;53.850;10.662;2023-08-17T05:10:20;5.07;;;2.20;;
64932;SDS011;51446;53.850;10.662;2023-08-17T05:12:46;6.80;;;2.27;;
64932;SDS011;51446;53.850;10.662;2023-08-17T05:15:11;8.07;;;2.00;;
64932;SDS011;51446;53.850;10.662;2023-08-17T05:17:37;7.10;;;2.00;;
64932;SDS011;51446;53.850;10.662;2023-08-17T05:20:03;8.47;;;2.17;;
64932;SDS011;51446;53.850;10.662;2023-08-17T05:22:29;6.85;;;1.92;;
64932;SDS011;51446;53.850;10.662;2023-08-17T05:24:55;6.17;;;2.10;;
64932;SDS011;51446;53.850;10.662;2023-08-17T05:27:20;4.73;;;1.83;;
64932;SDS011;51446;53.850;10.662;2023-08-17T05:29:45;5.53;;;2.17;;
64932;SDS011;51446;53.850;10.662;2023-08-17T05:32:11;5.23;;;1.87;;
64932;SDS011;51446;53.850;10.662;2023-08-17T05:34:36;9.17;;;2.30;;
64932;SDS011;51446;53.850;10.662;2023-08-17T05:37:01;7.03;;;2.00;;
64932;SDS011;51446;53.850;10.662;2023-08-17T05:39:28;4.40;;;1.88;;
64932;SDS011;51446;53.850;10.662;2023-08-17T05:41:53;4.50;;;1.70;;
64932;SDS011;51446;53.850;10.662;2023-08-17T05:44:18;6.13;;;2.00;;
64932;SDS011;51446;53.850;10.662;2023-08-17T05:46:43;3.97;;;1.80;;
64932;SDS011;51446;53.850;10.662;2023-08-17T05:49:09;5.77;;;1.80;;
64932;SDS011;51446;53.850;10.662;2023-08-17T05:51:34;9.10;;;2.57;;
64932;SDS011;51446;53.850;10.662;2023-08-17T05:54:01;7.28;;;2.10;;
64932;SDS011;51446;53.850;10.662;2023-08-17T05:56:26;6.27;;;1.83;;
64932;SDS011;51446;53.850;10.662;2023-08-17T05:58:53;8.68;;;1.95;;
64932;SDS011;51446;53.850;10.662;2023-08-17T06:01:18;4.20;;;1.77;;
64932;SDS011;51446;53.850;10.662;2023-08-17T06:03:43;4.10;;;1.63;;
64932;SDS011;51446;53.850;10.662;2023-08-17T06:06:09;8.00;;;1.90;;
64932;SDS011;51446;53.850;10.662;2023-08-17T06:08:34;4.47;;;1.77;;
64932;SDS011;51446;53.850;10.662;2023-08-17T06:11:00;7.10;;;1.90;;
64932;SDS011;51446;53.850;10.662;2023-08-17T06:13:25;4.73;;;2.00;;
64932;SDS011;51446;53.850;10.662;2023-08-17T06:15:50;13.98;;;2.30;;
64932;SDS011;51446;53.850;10.662;2023-08-17T06:18:16;8.57;;;2.40;;
64932;SDS011;51446;53.850;10.662;2023-08-17T06:20:41;9.80;;;1.97;;
64932;SDS011;51446;53.850;10.662;2023-08-17T06:23:07;7.87;;;2.80;;
64932;SDS011;51446;53.850;10.662;2023-08-17T06:25:32;8.65;;;2.10;;
64932;SDS011;51446;53.850;10.662;2023-08-17T06:27:59;5.33;;;2.10;;
64932;SDS011;51446;53.850;10.662;2023-08-17T06:30:24;7.50;;;2.20;;
64932;SDS011;51446;53.850;10.662;2023-08-17T06:32:52;6.87;;;2.17;;
64932;SDS011;51446;53.850;10.662;2023-08-17T06:35:18;11.00;;;2.60;;
64932;SDS011;51446;53.850;10.662;2023-08-17T06:37:43;8.10;;;2.23;;
64932;SDS011;51446;53.850;10.662;2023-08-17T06:40:08;6.20;;;1.93;;
64932;SDS011;51446;53.850;10.662;2023-08-17T06:42:34;6.57;;;2.30;;
64932;SDS011;51446;53.850;10.662;2023-08-17T06:44:59;13.67;;;2.90;;
64932;SDS011;51446;53.850;10.662;2023-08-17T06:47:25;7.43;;;2.60;;
64932;SDS011;51446;53.850;10.662;2023-08-17T06:49:50;6.80;;;2.50;;
64932;SDS011;51446;53.850;10.662;2023-08-17T06:52:15;5.30;;;2.03;;
64932;SDS011;51446;53.850;10.662;2023-08-17T06:54:40;4.83;;;2.13;;
64932;SDS011;51446;53.850;10.662;2023-08-17T06:57:06;8.73;;;2.40;;
64932;SDS011;51446;53.850;10.662;2023-08-17T06:59:31;7.27;;;2.50;;
64932;SDS011;51446;53.850;10.662;2023-08-17T07:01:59;4.10;;;2.30;;
64932;SDS011;51446;53.850;10.662;2023-08-17T07:04:25;4.90;;;2.13;;
64932;SDS011;51446;53.850;10.662;2023-08-17T07:06:50;2.97;;;1.83;;
64932;SDS011;51446;53.850;10.662;2023-08-17T07:09:16;5.80;;;2.08;;
64932;SDS011;51446;53.850;10.662;2023-08-17T07:11:41;10.77;;;2.53;;
64932;SDS011;51446;53.850;10.662;2023-08-17T07:14:06;19.47;;;2.60;;
64932;SDS011;51446;53.850;10.662;2023-08-17T07:16:32;4.60;;;2.00;;
64932;SDS011;51446;53.850;10.662;2023-08-17T07:18:58;7.43;;;1.77;;
64932;SDS011;51446;53.850;10.662;2023-08-17T07:21:23;4.47;;;1.60;;
64932;SDS011;51446;53.850;10.662;2023-08-17T07:23:49;8.38;;;1.90;;
64932;SDS011;51446;53.850;10.662;2023-08-17T07:26:15;5.23;;;1.80;;
64932;SDS011;51446;53.850;10.662;2023-08-17T07:28:41;7.07;;;1.92;;
64932;SDS011;51446;53.850;10.662;2023-08-17T07:31:06;3.57;;;1.73;;
64932;SDS011;51446;53.850;10.662;2023-08-17T07:33:32;4.57;;;2.00;;
64932;SDS011;51446;53.850;10.662;2023-08-17T07:35:57;3.40;;;1.87;;
64932;SDS011;51446;53.850;10.662;2023-08-17T07:38:23;6.72;;;2.00;;
64932;SDS011;51446;53.850;10.662;2023-08-17T07:40:48;8.70;;;1.90;;
64932;SDS011;51446;53.850;10.662;2023-08-17T07:43:13;7.07;;;2.20;;
64932;SDS011;51446;53.850;10.662;2023-08-17T07:45:39;6.17;;;1.90;;
64932;SDS011;51446;53.850;10.662;2023-08-17T07:48:04;7.33;;;2.20;;
64932;SDS011;51446;53.850;10.662;2023-08-17T07:50:29;4.50;;;2.10;;
64932;SDS011;51446;53.850;10.662;2023-08-17T07:52:55;6.63;;;2.13;;
64932;SDS011;51446;53.850;10.662;2023-08-17T07:55:20;7.67;;;1.80;;
64932;SDS011;51446;53.850;10.662;2023-08-17T07:57:46;3.88;;;1.70;;
64932;SDS011;51446;53.850;10.662;2023-08-17T08:00:11;5.17;;;2.40;;
64932;SDS011;51446;53.850;10.662;2023-08-17T08:02:37;4.67;;;2.20;;
64932;SDS011;51446;53.850;10.662;2023-08-17T08:05:02;4.87;;;1.90;;
64932;SDS011;51446;53.850;10.662;2023-08-17T08:07:27;7.27;;;2.20;;
64932;SDS011;51446;53.850;10.662;2023-08-17T08:09:53;6.20;;;2.10;;
64932;SDS011;51446;53.850;10.662;2023-08-17T08:12:18;4.13;;;2.03;;
64932;SDS011;51446;53.850;10.662;2023-08-17T08:14:43;6.50;;;2.30;;
64932;SDS011;51446;53.850;10.662;2023-08-17T08:17:08;5.57;;;2.43;;
64932;SDS011;51446;53.850;10.662;2023-08-17T08:19:35;5.05;;;2.40;;
64932;SDS011;51446;53.850;10.662;2023-08-17T08:22:00;8.53;;;3.23;;
64932;SDS011;51446;53.850;10.662;2023-08-17T08:24:27;6.23;;;2.50;;
64932;SDS011;51446;53.850;10.662;2023-08-17T08:26:56;11.60;;;2.70;;
64932;SDS011;51446;53.850;10.662;2023-08-17T08:29:21;5.90;;;2.70;;
64932;SDS011;51446;53.850;10.662;2023-08-17T08:31:47;8.53;;;2.70;;
64932;SDS011;51446;53.850;10.662;2023-08-17T08:34:12;6.07;;;3.27;;
64932;SDS011;51446;53.850;10.662;2023-08-17T08:36:37;6.10;;;2.70;;
64932;SDS011;51446;53.850;10.662;2023-08-17T08:39:03;5.77;;;2.60;;
64932;SDS011;51446;53.850;10.662;2023-08-17T08:41:28;4.40;;;2.27;;
64932;SDS011;51446;53.850;10.662;2023-08-17T08:43:54;6.05;;;1.80;;
64932;SDS011;51446;53.850;10.662;2023-08-17T08:46:20;2.67;;;1.58;;
64932;SDS011;51446;53.850;10.662;2023-08-17T08:48:46;2.83;;;1.30;;
64932;SDS011;51446;53.850;10.662;2023-08-17T08:51:16;2.95;;;1.60;;
64932;SDS011;51446;53.850;10.662;2023-08-17T08:53:46;2.30;;;1.40;;
64932;SDS011;51446;53.850;10.662;2023-08-17T08:56:16;4.18;;;1.63;;
64932;SDS011;51446;53.850;10.662;2023-08-17T08:58:45;3.58;;;1.60;;
64932;SDS011;51446;53.850;10.662;2023-08-17T09:01:12;3.63;;;1.42;;
64932;SDS011;51446;53.850;10.662;2023-08-17T09:03:38;2.35;;;1.55;;
64932;SDS011;51446;53.850;10.662;2023-08-17T09:06:05;3.63;;;1.63;;
64932;SDS011;51446;53.850;10.662;2023-08-17T09:08:30;2.95;;;1.58;;
64932;SDS011;51446;53.850;10.662;2023-08-17T09:10:56;4.03;;;1.60;;
64932;SDS011;51446;53.850;10.662;2023-08-17T09:13:22;3.40;;;1.52;;
64932;SDS011;51446;53.850;10.662;2023-08-17T09:15:47;7.27;;;1.83;;
64932;SDS011;51446;53.850;10.662;2023-08-17T09:18:13;2.57;;;1.57;;
64932;SDS011;51446;53.850;10.662;2023-08-17T09:20:43;2.95;;;1.80;;
64932;SDS011;51446;53.850;10.662;2023-08-17T09:23:14;2.90;;;1.70;;
64932;SDS011;51446;53.850;10.662;2023-08-17T09:25:42;4.32;;;1.67;;
64932;SDS011;51446;53.850;10.662;2023-08-17T09:28:09;2.93;;;1.63;;
64932;SDS011;51446;53.850;10.662;2023-08-17T09:30:48;3.13;;;1.45;;
64932;SDS011;51446;53.850;10.662;2023-08-17T09:33:18;3.53;;;1.70;;
64932;SDS011;51446;53.850;10.662;2023-08-17T09:35:48;4.15;;;1.88;;
64932;SDS011;51446;53.850;10.662;2023-08-17T09:38:14;3.20;;;1.48;;
64932;SDS011;51446;53.850;10.662;2023-08-17T09:40:39;2.87;;;1.40;;
64932;SDS011;51446;53.850;10.662;2023-08-17T09:43:05;3.37;;;1.80;;
64932;SDS011;51446;53.850;10.662;2023-08-17T09:45:30;2.63;;;1.53;;
64932;SDS011;51446;53.850;10.662;2023-08-17T09:47:58;3.70;;;1.70;;
64932;SDS011;51446;53.850;10.662;2023-08-17T09:50:24;3.70;;;1.90;;
64932;SDS011;51446;53.850;10.662;2023-08-17T09:52:52;4.43;;;1.98;;
64932;SDS011;51446;53.850;10.662;2023-08-17T09:55:19;4.28;;;1.85;;
64932;SDS011;51446;53.850;10.662;2023-08-17T09:57:47;4.87;;;2.00;;
64932;SDS011;51446;53.850;10.662;2023-08-17T10:00:14;4.07;;;2.17;;
64932;SDS011;51446;53.850;10.662;2023-08-17T10:02:40;6.90;;;2.53;;
64932;SDS011;51446;53.850;10.662;2023-08-17T10:05:05;7.25;;;3.13;;
64932;SDS011;51446;53.850;10.662;2023-08-17T10:07:34;4.47;;;2.58;;
64932;SDS011;51446;53.850;10.662;2023-08-17T10:10:04;7.57;;;2.60;;
64932;SDS011;51446;53.850;10.662;2023-08-17T10:12:37;7.82;;;2.50;;
64932;SDS011;51446;53.850;10.662;2023-08-17T10:15:08;5.22;;;2.53;;
64932;SDS011;51446;53.850;10.662;2023-08-17T10:17:50;7.25;;;2.88;;
64932;SDS011;51446;53.850;10.662;2023-08-17T10:20:23;5.97;;;2.70;;
64932;SDS011;51446;53.850;10.662;2023-08-17T10:23:07;9.70;;;2.80;;
64932;SDS011;51446;53.850;10.662;2023-08-17T10:25:37;6.47;;;2.42;;
64932;SDS011;51446;53.850;10.662;2023-08-17T10:28:03;3.78;;;2.20;;
64932;SDS011;51446;53.850;10.662;2023-08-17T10:30:29;8.57;;;2.42;;
64932;SDS011;51446;53.850;10.662;2023-08-17T10:32:55;8.53;;;2.77;;
64932;SDS011;51446;53.850;10.662;2023-08-17T10:35:20;6.10;;;1.90;;
64932;SDS011;51446;53.850;10.662;2023-08-17T10:37:46;5.07;;;2.22;;
64932;SDS011;51446;53.850;10.662;2023-08-17T10:40:12;10.43;;;2.00;;
64932;SDS011;51446;53.850;10.662;2023-08-17T10:42:37;3.97;;;1.90;;
64932;SDS011;51446;53.850;10.662;2023-08-17T10:45:24;6.28;;;1.88;;
64932;SDS011;51446;53.850;10.662;2023-08-17T10:47:52;6.20;;;2.17;;
64932;SDS011;51446;53.850;10.662;2023-08-17T10:50:58;5.72;;;2.03;;
64932;SDS011;51446;53.850;10.662;2023-08-17T10:53:26;3.97;;;2.20;;
64932;SDS011;51446;53.850;10.662;2023-08-17T10:55:54;6.40;;;2.30;;
64932;SDS011;51446;53.850;10.662;2023-08-17T10:58:22;6.38;;;2.40;;
64932;SDS011;51446;53.850;10.662;2023-08-17T11:00:48;4.77;;;2.20;;
64932;SDS011;51446;53.850;10.662;2023-08-17T11:03:20;7.45;;;2.30;;
64932;SDS011;51446;53.850;10.662;2023-08-17T11:05:47;10.30;;;2.40;;
64932;SDS011;51446;53.850;10.662;2023-08-17T11:08:39;5.40;;;2.20;;
64932;SDS011;51446;53.850;10.662;2023-08-17T11:11:15;9.75;;;2.75;;
64932;SDS011;51446;53.850;10.662;2023-08-17T11:13:41;7.00;;;2.80;;
64932;SDS011;51446;53.850;10.662;2023-08-17T11:16:08;6.88;;;2.60;;
64932;SDS011;51446;53.850;10.662;2023-08-17T11:18:35;5.25;;;2.88;;
64932;SDS011;51446;53.850;10.662;2023-08-17T11:21:07;6.50;;;3.07;;
64932;SDS011;51446;53.850;10.662;2023-08-17T11:23:36;9.80;;;3.08;;
64932;SDS011;51446;53.850;10.662;2023-08-17T11:26:02;11.15;;;3.60;;
64932;SDS011;51446;53.850;10.662;2023-08-17T11:28:31;10.45;;;4.05;;
64932;SDS011;51446;53.850;10.662;2023-08-17T11:31:01;8.07;;;3.65;;
64932;SDS011;51446;53.850;10.662;2023-08-17T11:33:28;8.27;;;3.27;;
64932;SDS011;51446;53.850;10.662;2023-08-17T11:35:55;5.75;;;2.63;;
64932;SDS011;51446;53.850;10.662;2023-08-17T11:38:21;6.70;;;2.80;;
64932;SDS011;51446;53.850;10.662;2023-08-17T11:40:47;5.87;;;2.60;;
64932;SDS011;51446;53.850;10.662;2023-08-17T11:43:13;8.38;;;2.65;;
64932;SDS011;51446;53.850;10.662;2023-08-17T11:45:39;5.90;;;2.77;;
64932;SDS011;51446;53.850;10.662;2023-08-17T11:48:04;8.40;;;2.27;;
64932;SDS011;51446;53.850;10.662;2023-08-17T11:50:30;5.18;;;2.85;;
64932;SDS011;51446;53.850;10.662;2023-08-17T11:52:58;7.37;;;3.03;;
64932;SDS011;51446;53.850;10.662;2023-08-17T11:55:24;4.28;;;3.00;;
64932;SDS011;51446;53.850;10.662;2023-08-17T11:57:49;8.13;;;2.87;;
64932;SDS011;51446;53.850;10.662;2023-08-17T12:00:18;5.43;;;2.60;;
64932;SDS011;51446;53.850;10.662;2023-08-17T12:02:49;5.95;;;2.35;;
64932;SDS011;51446;53.850;10.662;2023-08-17T12:05:24;5.93;;;2.50;;
64932;SDS011;51446;53.850;10.662;2023-08-17T12:07:53;4.80;;;2.22;;
64932;SDS011;51446;53.850;10.662;2023-08-17T12:10:19;5.85;;;2.40;;
64932;SDS011;51446;53.850;10.662;2023-08-17T12:12:48;3.37;;;2.50;;
64932;SDS011;51446;53.850;10.662;2023-08-17T12:15:17;6.88;;;2.45;;
64932;SDS011;51446;53.850;10.662;2023-08-17T12:17:46;5.05;;;2.65;;
64932;SDS011;51446;53.850;10.662;2023-08-17T12:20:19;5.53;;;2.45;;
64932;SDS011;51446;53.850;10.662;2023-08-17T12:22:48;6.07;;;2.30;;
64932;SDS011;51446;53.850;10.662;2023-08-17T12:25:13;7.93;;;2.55;;
64932;SDS011;51446;53.850;10.662;2023-08-17T12:27:39;5.85;;;2.15;;
64932;SDS011;51446;53.850;10.662;2023-08-17T12:30:11;5.83;;;1.90;;
64932;SDS011;51446;53.850;10.662;2023-08-17T12:32:38;7.85;;;2.00;;
64932;SDS011;51446;53.850;10.662;2023-08-17T12:35:03;9.30;;;1.93;;
64932;SDS011;51446;53.850;10.662;2023-08-17T12:37:29;5.85;;;1.90;;
64932;SDS011;51446;53.850;10.662;2023-08-17T12:39:54;6.30;;;2.20;;
64932;SDS011;51446;53.850;10.662;2023-08-17T12:42:19;4.47;;;1.73;;
64932;SDS011;51446;53.850;10.662;2023-08-17T12:44:44;2.93;;;1.80;;
64932;SDS011;51446;53.850;10.662;2023-08-17T12:47:10;4.10;;;2.20;;
64932;SDS011;51446;53.850;10.662;2023-08-17T12:49:35;6.53;;;2.23;;
64932;SDS011;51446;53.850;10.662;2023-08-17T12:52:01;7.35;;;1.95;;
64932;SDS011;51446;53.850;10.662;2023-08-17T12:54:26;8.30;;;2.00;;
64932;SDS011;51446;53.850;10.662;2023-08-17T12:56:51;8.53;;;2.17;;
64932;SDS011;51446;53.850;10.662;2023-08-17T12:59:16;5.13;;;2.20;;
64932;SDS011;51446;53.850;10.662;2023-08-17T13:01:42;8.10;;;2.20;;
64932;SDS011;51446;53.850;10.662;2023-08-17T13:04:07;6.77;;;2.40;;
64932;SDS011;51446;53.850;10.662;2023-08-17T13:06:32;5.00;;;2.10;;
64932;SDS011;51446;53.850;10.662;2023-08-17T13:08:58;6.37;;;2.20;;
64932;SDS011;51446;53.850;10.662;2023-08-17T13:11:23;4.83;;;2.40;;
64932;SDS011;51446;53.850;10.662;2023-08-17T13:13:48;5.23;;;2.40;;
64932;SDS011;51446;53.850;10.662;2023-08-17T13:16:13;4.13;;;2.53;;
64932;SDS011;51446;53.850;10.662;2023-08-17T13:18:39;5.63;;;2.37;;
64932;SDS011;51446;53.850;10.662;2023-08-17T13:21:04;5.07;;;1.97;;
64932;SDS011;51446;53.850;10.662;2023-08-17T13:23:30;6.38;;;2.00;;
64932;SDS011;51446;53.850;10.662;2023-08-17T13:25:55;4.30;;;1.83;;
64932;SDS011;51446;53.850;10.662;2023-08-17T13:28:22;4.67;;;1.97;;
64932;SDS011;51446;53.850;10.662;2023-08-17T13:30:47;8.15;;;1.80;;
64932;SDS011;51446;53.850;10.662;2023-08-17T13:33:12;4.30;;;1.97;;
64932;SDS011;51446;53.850;10.662;2023-08-17T13:35:38;6.80;;;2.00;;
64932;SDS011;51446;53.850;10.662;2023-08-17T13:38:03;6.78;;;1.80;;
64932;SDS011;51446;53.850;10.662;2023-08-17T13:40:30;3.93;;;1.70;;
64932;SDS011;51446;53.850;10.662;2023-08-17T13:42:55;6.10;;;2.33;;
64932;SDS011;51446;53.850;10.662;2023-08-17T13:45:21;5.73;;;2.00;;
64932;SDS011;51446;53.850;10.662;2023-08-17T13:47:46;5.87;;;2.30;;
64932;SDS011;51446;53.850;10.662;2023-08-17T13:50:11;5.78;;;2.22;;
64932;SDS011;51446;53.850;10.662;2023-08-17T13:52:37;10.13;;;2.87;;
64932;SDS011;51446;53.850;10.662;2023-08-17T13:55:02;5.33;;;2.60;;
64932;SDS011;51446;53.850;10.662;2023-08-17T13:57:28;4.78;;;2.30;;
64932;SDS011;51446;53.850;10.662;2023-08-17T13:59:53;8.07;;;2.80;;
64932;SDS011;51446;53.850;10.662;2023-08-17T14:02:19;5.20;;;2.70;;
64932;SDS011;51446;53.850;10.662;2023-08-17T14:04:44;6.33;;;2.83;;
64932;SDS011;51446;53.850;10.662;2023-08-17T14:07:10;8.77;;;3.00;;
64932;SDS011;51446;53.850;10.662;2023-08-17T14:09:35;6.97;;;3.07;;
64932;SDS011;51446;53.850;10.662;2023-08-17T14:12:00;10.53;;;2.70;;
64932;SDS011;51446;53.850;10.662;2023-08-17T14:14:26;6.33;;;2.77;;
64932;SDS011;51446;53.850;10.662;2023-08-17T14:16:52;7.63;;;3.00;;
64932;SDS011;51446;53.850;10.662;2023-08-17T14:19:17;6.43;;;2.93;;
64932;SDS011;51446;53.850;10.662;2023-08-17T14:21:42;7.93;;;2.20;;
64932;SDS011;51446;53.850;10.662;2023-08-17T14:24:07;7.43;;;2.43;;
64932;SDS011;51446;53.850;10.662;2023-08-17T14:26:33;5.97;;;2.23;;
64932;SDS011;51446;53.850;10.662;2023-08-17T14:28:59;5.33;;;1.77;;
64932;SDS011;51446;53.850;10.662;2023-08-17T14:31:24;5.18;;;1.70;;
64932;SDS011;51446;53.850;10.662;2023-08-17T14:33:49;4.70;;;1.80;;